Terminal Aerodrome Forecast
Issued by NWS

Home | Current Version | Previous Version | Text Only | Print | Product List | Glossary On
Versions: 1 2 3 4 5 6 7 8 9 10 11 12 13 14 15 16 17 18 19 20 21 22 23 24 25 26 27 28 29 30 31 32 33 34 35
000
FTUS42 KJAX 010527 AAA
TAFVQQ
TAF AMD
KVQQ 010527Z 0105/0206 00000KT P6SM -RA BKN050 OVC100
     FM010800 21003KT P6SM VCSH BKN040 OVC100
      TEMPO 0108/0112 3SM -RA BR BKN025
     FM011200 22009KT P6SM VCSH OVC010
     FM011600 18012KT 5SM -SHRA BR OVC015=

USA.gov is the U.S. government's official web portal to all federal, state and local government web resources and services.